Time;durP1;ratioP1;P1;durP2;ratioP2;P2;SDS_P1;SDS_P2;PMS_P1;PMS_P2;Temp;Humidity;BMP_temperature;BMP_pressure;BME280_temperature;BME280_humidity;BME280_pressure;Samples;Min_cycle;Max_cycle;Signal;HPM_P1;HPM_P2
2023/07/28 00:01:50;;;;;;;;;;;;;;;28.50;34.62;100569.00;5080468;28;1976;-28
2023/07/28 00:04:16;;;;;;;;;;;;;;;28.43;34.91;100582.50;5098130;28;1161;-32
2023/07/28 00:06:41;;;;;;;;;;;;;;;28.36;35.05;100577.06;5098738;28;1030;-31
2023/07/28 00:09:07;;;;;;;;;;;;;;;26.96;35.48;100360.13;5098642;28;1181;-27
2023/07/28 00:11:32;;;;;;;;;;;;;;;28.31;35.11;100571.34;5087551;28;1074;-29
2023/07/28 00:13:58;;;;;;;;;;;;;;;28.40;34.94;100578.31;5097857;28;2537;-32
2023/07/28 00:16:23;;;;;;;;;;;;;;;28.46;34.48;100580.22;5098099;28;990;-25
2023/07/28 00:18:49;;;;;;;;;;;;;;;28.30;35.09;100578.63;5097285;28;1323;-28
2023/07/28 00:21:14;;;;;;;;;;;;;;;28.44;34.57;100576.91;5098419;28;1970;-28
2023/07/28 00:23:40;;;;;;;;;;;;;;;28.38;35.20;100574.97;5098492;28;1071;-27
2023/07/28 00:26:06;;;;;;;;;;;;;;;28.43;35.11;100568.97;5098011;28;1046;-32
2023/07/28 00:28:31;;;;;;;;;;;;;;;28.49;34.45;100570.91;5098140;28;1154;-30
2023/07/28 00:30:56;;;;;;;;;;;;;;;28.48;34.71;100563.81;5098033;28;1027;-29
2023/07/28 00:33:23;;;;;;;;;;;;;;;28.42;34.76;100560.03;5084840;28;1007;-32
2023/07/28 00:35:49;;;;;;;;;;;;;;;28.45;34.55;100567.75;5079792;28;1217;-31
2023/07/28 00:38:14;;;;;;;;;;;;;;;28.48;34.55;100566.50;5097751;28;1073;-30
2023/07/28 00:40:40;;;;;;;;;;;;;;;28.50;34.75;100566.31;5080100;28;1210;-29
2023/07/28 00:43:05;;;;;;;;;;;;;;;28.51;34.44;100568.81;5084235;28;1985;-30
2023/07/28 00:45:31;;;;;;;;;;;;;;;28.41;34.98;100562.94;5096100;28;2570;-29
2023/07/28 00:47:59;;;;;;;;;;;;;;;28.50;33.96;100566.31;5079344;28;1019;-31
2023/07/28 00:50:25;;;;;;;;;;;;;;;28.49;34.16;100573.59;5097696;28;1117;-31
2023/07/28 00:52:50;;;;;;;;;;;;;;;28.48;34.16;100586.28;5079552;28;1039;-32
2023/07/28 00:55:16;;;;;;;;;;;;;;;28.42;33.98;100576.25;5079867;28;1213;-29
2023/07/28 00:57:42;;;;;;;;;;;;;;;28.29;34.53;100582.38;5079435;28;1594;-29
2023/07/28 01:00:07;;;;;;;;;;;;;;;28.35;33.78;100578.91;5079038;28;1205;-31
2023/07/28 01:02:33;;;;;;;;;;;;;;;28.26;34.25;100577.31;5078912;28;1917;-31
2023/07/28 01:04:58;;;;;;;;;;;;;;;28.35;33.74;100583.47;5079297;28;1173;-28
2023/07/28 01:07:30;;;;;;;;;;;;;;;28.39;33.89;100592.03;5079015;28;1019;-29
2023/07/28 01:10:06;;;;;;;;;;;;;;;28.34;33.83;100581.81;5079586;28;1427;-30
2023/07/28 01:12:31;;;;;;;;;;;;;;;28.21;34.18;100586.03;5096939;28;1204;-30
2023/07/28 01:14:57;;;;;;;;;;;;;;;28.27;34.11;100597.97;5085677;28;2281;-28
2023/07/28 01:17:23;;;;;;;;;;;;;;;28.32;34.17;100594.66;5097019;28;1185;-28
2023/07/28 01:19:49;;;;;;;;;;;;;;;28.29;34.21;100612.13;5078496;28;1060;-29
2023/07/28 01:22:34;;;;;;;;;;;;;;;28.28;33.99;100606.91;5078239;28;1918;-27
2023/07/28 01:25:08;;;;;;;;;;;;;;;28.25;34.01;100608.13;5096616;28;1114;-31
2023/07/28 01:27:35;;;;;;;;;;;;;;;28.39;33.83;100606.41;5097350;28;1094;-30
2023/07/28 01:30:00;;;;;;;;;;;;;;;28.33;34.28;100612.59;5096190;28;1019;-28
2023/07/28 01:32:26;;;;;;;;;;;;;;;28.40;34.02;100608.06;5078730;28;1190;-28
2023/07/28 01:34:51;;;;;;;;;;;;;;;28.35;33.70;100611.38;5096897;28;1149;-28
2023/07/28 01:37:17;;;;;;;;;;;;;;;28.11;33.96;100612.59;5078114;28;1062;-31
2023/07/28 01:39:42;;;;;;;;;;;;;;;28.24;33.75;100617.28;5078431;28;1007;-29
2023/07/28 01:42:08;;;;;;;;;;;;;;;28.28;34.10;100615.03;5078321;28;1901;-27
2023/07/28 01:44:33;;;;;;;;;;;;;;;28.18;34.12;100609.91;5093489;28;1893;-30
2023/07/28 01:46:59;;;;;;;;;;;;;;;28.15;34.07;100627.38;5096953;28;1008;-26
2023/07/28 01:49:24;;;;;;;;;;;;;;;28.23;33.98;100623.69;5096462;28;1173;-28
2023/07/28 01:51:50;;;;;;;;;;;;;;;28.15;34.03;100621.97;5096503;28;1197;-33
2023/07/28 01:54:15;;;;;;;;;;;;;;;28.29;34.25;100625.66;5078194;28;1201;-32
2023/07/28 01:56:41;;;;;;;;;;;;;;;28.19;33.77;100627.84;5096571;28;1066;-31
2023/07/28 01:59:06;;;;;;;;;;;;;;;28.21;34.00;100629.31;5078410;28;1272;-30
2023/07/28 02:01:32;;;;;;;;;;;;;;;28.19;34.11;100625.13;5076191;28;2297;-29
2023/07/28 02:03:58;;;;;;;;;;;;;;;28.14;33.90;100616.75;5078510;28;1190;-29
2023/07/28 02:06:24;;;;;;;;;;;;;;;28.19;33.73;100627.84;5096812;28;1090;-31
2023/07/28 02:08:49;;;;;;;;;;;;;;;28.09;34.19;100630.88;5078406;28;1181;-32
2023/07/28 02:11:15;;;;;;;;;;;;;;;28.14;33.79;100628.44;5095739;28;1035;-31
2023/07/28 02:13:41;;;;;;;;;;;;;;;28.26;33.70;100636.03;5077900;28;1353;-33
2023/07/28 02:16:12;;;;;;;;;;;;;;;28.22;33.75;100633.72;5095978;28;2660;-30
2023/07/28 02:18:38;;;;;;;;;;;;;;;28.19;34.04;100641.38;5096117;28;1248;-30
2023/07/28 02:21:03;;;;;;;;;;;;;;;28.24;34.05;100642.44;5096101;28;1914;-27
2023/07/28 02:23:30;;;;;;;;;;;;;;;28.17;34.16;100648.81;5077969;28;1141;-32
2023/07/28 02:25:55;;;;;;;;;;;;;;;28.18;34.03;100645.06;5094787;28;868;-31
2023/07/28 02:28:22;;;;;;;;;;;;;;;28.29;33.59;100646.44;5078009;28;1053;-30
2023/07/28 02:30:48;;;;;;;;;;;;;;;28.19;34.50;100653.03;5095909;28;1035;-33
2023/07/28 02:33:13;;;;;;;;;;;;;;;28.23;33.54;100658.88;5064145;28;1267;-28
2023/07/28 02:35:39;;;;;;;;;;;;;;;28.18;34.03;100648.63;5095684;28;1022;-28
2023/07/28 02:38:04;;;;;;;;;;;;;;;28.33;34.03;100658.56;5077296;28;1274;-29
2023/07/28 02:40:31;;;;;;;;;;;;;;;28.26;33.28;100649.53;5077082;28;1221;-29
2023/07/28 02:42:58;;;;;;;;;;;;;;;28.18;34.15;100656.75;5077781;28;1985;-30
2023/07/28 02:45:24;;;;;;;;;;;;;;;28.19;33.23;100657.59;5093649;28;2457;-30
2023/07/28 02:47:50;;;;;;;;;;;;;;;28.14;33.48;100647.34;5095900;28;1140;-31
2023/07/28 02:50:16;;;;;;;;;;;;;;;28.18;33.68;100655.91;5077217;28;847;-27
2023/07/28 02:52:41;;;;;;;;;;;;;;;28.22;33.53;100649.09;5077720;28;1190;-31
2023/07/28 02:55:07;;;;;;;;;;;;;;;28.03;33.90;100654.09;5067120;28;1098;-27
2023/07/28 02:57:33;;;;;;;;;;;;;;;28.12;33.59;100654.81;5075101;28;1115;-29
2023/07/28 02:59:58;;;;;;;;;;;;;;;27.97;33.98;100653.00;5077745;28;1162;-31
2023/07/28 03:02:24;;;;;;;;;;;;;;;27.95;34.01;100651.50;5076767;28;1909;-33
2023/07/28 03:04:52;;;;;;;;;;;;;;;28.01;34.21;100664.25;5077762;28;1138;-33
2023/07/28 03:07:50;;;;;;;;;;;;;;;28.16;33.86;100663.38;5050391;28;1161;-33
2023/07/28 03:10:18;;;;;;;;;;;;;;;28.09;33.81;100666.84;5076960;28;1146;-29
2023/07/28 03:12:44;;;;;;;;;;;;;;;27.97;33.94;100668.38;5095277;28;1111;-28
2023/07/28 03:15:09;;;;;;;;;;;;;;;28.14;33.08;100671.69;5067645;28;2381;-30
2023/07/28 03:17:35;;;;;;;;;;;;;;;28.12;33.52;100673.75;5077511;28;1079;-31
2023/07/28 03:20:01;;;;;;;;;;;;;;;27.89;34.07;100676.59;5095608;28;1134;-28
2023/07/28 03:22:26;;;;;;;;;;;;;;;27.88;33.85;100675.75;5077423;28;1980;-29
2023/07/28 03:24:52;;;;;;;;;;;;;;;28.10;33.44;100678.50;5076758;28;1578;-31
2023/07/28 03:27:17;;;;;;;;;;;;;;;28.02;33.71;100681.31;5094911;28;848;-32
2023/07/28 03:29:43;;;;;;;;;;;;;;;27.99;33.50;100683.38;5077230;28;1332;-32
2023/07/28 03:32:09;;;;;;;;;;;;;;;27.99;33.60;100691.47;5070430;28;1324;-33
2023/07/28 03:34:34;;;;;;;;;;;;;;;27.79;34.52;100699.38;5088555;28;1146;-28
2023/07/28 03:37:03;;;;;;;;;;;;;;;27.94;33.97;100701.22;5077024;28;1160;-29
2023/07/28 03:39:29;;;;;;;;;;;;;;;27.94;33.71;100709.31;5076723;28;1364;-26
2023/07/28 03:41:55;;;;;;;;;;;;;;;28.03;33.85;100705.47;5077182;28;1905;-31
2023/07/28 03:44:20;;;;;;;;;;;;;;;27.93;33.87;100711.19;5077026;28;1861;-27
2023/07/28 03:46:46;;;;;;;;;;;;;;;27.99;34.22;100709.59;5095129;28;1117;-31
2023/07/28 03:49:12;;;;;;;;;;;;;;;27.77;34.53;100712.25;5094739;28;1211;-30
2023/07/28 03:51:37;;;;;;;;;;;;;;;27.73;35.56;100722.59;5077565;28;1344;-27
2023/07/28 03:54:03;;;;;;;;;;;;;;;26.71;37.87;100709.38;5075500;28;1543;-26
2023/07/28 03:56:28;;;;;;;;;;;;;;;25.50;40.59;100722.09;5080478;28;1178;-27
2023/07/28 03:58:55;;;;;;;;;;;;;;;25.77;40.33;100724.56;5094198;28;1473;-22
2023/07/28 04:01:21;;;;;;;;;;;;;;;25.02;41.73;100722.88;5096316;28;1910;-22
2023/07/28 04:03:47;;;;;;;;;;;;;;;24.55;42.94;100727.88;5098903;28;1042;-22
2023/07/28 04:06:13;;;;;;;;;;;;;;;25.02;42.17;100728.25;5068578;28;1121;-25
2023/07/28 04:08:39;;;;;;;;;;;;;;;24.31;43.88;100736.72;5096421;28;1265;-23
2023/07/28 04:11:04;;;;;;;;;;;;;;;23.93;42.89;100737.06;5091405;28;1336;-23
2023/07/28 04:13:30;;;;;;;;;;;;;;;24.05;41.94;100749.22;5073160;28;1048;-22
2023/07/28 04:15:55;;;;;;;;;;;;;;;23.55;44.70;100754.34;5074878;28;2531;-26
2023/07/28 04:18:23;;;;;;;;;;;;;;;23.32;45.73;100754.00;5072791;28;1294;-24
2023/07/28 04:20:48;;;;;;;;;;;;;;;23.20;46.68;100764.16;5076670;28;1154;-24
2023/07/28 04:23:14;;;;;;;;;;;;;;;23.59;43.23;100769.13;5097809;28;1910;-26
2023/07/28 04:25:40;;;;;;;;;;;;;;;23.51;45.64;100768.22;5076539;28;1408;-25
2023/07/28 04:28:05;;;;;;;;;;;;;;;22.82;47.19;100767.03;5072287;28;1426;-23
2023/07/28 04:30:31;;;;;;;;;;;;;;;22.63;47.97;100769.72;5098443;28;1054;-23
2023/07/28 04:32:56;;;;;;;;;;;;;;;22.57;48.02;100767.59;5066724;28;1170;-26
2023/07/28 04:35:30;;;;;;;;;;;;;;;22.62;48.30;100767.19;5079395;28;1269;-26
2023/07/28 04:38:21;;;;;;;;;;;;;;;22.71;47.68;100776.97;5093794;28;1159;-25
2023/07/28 04:40:53;;;;;;;;;;;;;;;22.72;47.60;100767.09;5080078;28;1288;-24
2023/07/28 04:43:23;;;;;;;;;;;;;;;22.73;47.58;100766.94;5079624;28;1140;-22
2023/07/28 04:45:53;;;;;;;;;;;;;;;22.92;47.29;100775.00;5079504;28;1813;-24
2023/07/28 04:48:21;;;;;;;;;;;;;;;22.98;47.00;100775.22;5079419;28;1197;-25
2023/07/28 04:50:46;;;;;;;;;;;;;;;23.06;46.87;100769.06;5079877;28;1155;-26
2023/07/28 04:53:32;;;;;;;;;;;;;;;22.98;47.52;100769.00;5096939;28;1160;-25
2023/07/28 04:56:16;;;;;;;;;;;;;;;23.11;46.90;100765.91;5079434;28;2043;-25
2023/07/28 04:58:42;;;;;;;;;;;;;;;22.84;47.37;100759.66;5079453;28;1194;-23
2023/07/28 05:01:09;;;;;;;;;;;;;;;23.02;47.03;100765.03;5079550;28;1982;-24
2023/07/28 05:03:35;;;;;;;;;;;;;;;23.16;46.40;100765.44;5079312;28;1734;-24
2023/07/28 05:06:22;;;;;;;;;;;;;;;23.12;46.73;100768.44;5081823;28;1308;-22
2023/07/28 05:08:48;;;;;;;;;;;;;;;23.46;43.40;100761.50;5078626;28;1284;-26
2023/07/28 05:11:19;;;;;;;;;;;;;;;23.76;45.89;100757.63;5075706;28;1379;-28
2023/07/28 05:13:44;;;;;;;;;;;;;;;23.60;46.26;100765.47;5097521;28;1007;-26
2023/07/28 05:16:10;;;;;;;;;;;;;;;23.75;45.45;100764.03;5088227;28;2601;-23
2023/07/28 05:18:58;;;;;;;;;;;;;;;23.70;45.57;100765.34;5057160;28;1315;-22
2023/07/28 05:21:42;;;;;;;;;;;;;;;23.90;45.64;100762.44;5094227;28;1966;-24
2023/07/28 05:24:12;;;;;;;;;;;;;;;23.99;44.82;100757.09;5075019;28;1166;-23
2023/07/28 05:26:37;;;;;;;;;;;;;;;23.86;45.21;100766.41;5079185;28;1265;-22
2023/07/28 05:29:03;;;;;;;;;;;;;;;23.73;45.92;100750.75;5097312;28;1109;-24
2023/07/28 05:31:28;;;;;;;;;;;;;;;23.99;45.06;100752.53;5078532;28;1118;-24
2023/07/28 05:33:54;;;;;;;;;;;;;;;23.94;45.40;100761.09;5078581;28;1295;-25
2023/07/28 05:36:20;;;;;;;;;;;;;;;23.80;46.23;100767.06;5078842;28;1106;-22
2023/07/28 05:38:47;;;;;;;;;;;;;;;23.80;45.77;100762.56;5078321;28;1217;-25
2023/07/28 05:41:12;;;;;;;;;;;;;;;23.87;45.94;100760.06;5078271;28;1973;-25
2023/07/28 05:43:38;;;;;;;;;;;;;;;23.42;46.94;100759.31;5078648;28;1302;-25
2023/07/28 05:46:04;;;;;;;;;;;;;;;23.94;45.58;100761.09;5074926;28;2800;-24
2023/07/28 05:48:33;;;;;;;;;;;;;;;24.40;43.73;100765.31;5078390;28;1265;-24
2023/07/28 05:50:59;;;;;;;;;;;;;;;24.25;43.97;100762.41;5078020;28;1173;-23
2023/07/28 05:53:24;;;;;;;;;;;;;;;24.00;44.21;100759.63;5077493;28;1038;-24
2023/07/28 05:55:54;;;;;;;;;;;;;;;24.52;43.40;100755.09;5078350;28;1221;-25
2023/07/28 05:58:20;;;;;;;;;;;;;;;24.38;43.55;100761.09;5095814;28;1343;-24
2023/07/28 06:00:47;;;;;;;;;;;;;;;24.48;42.83;100752.88;5073206;28;1106;-24
2023/07/28 06:03:32;;;;;;;;;;;;;;;22.37;47.67;100745.44;5077316;28;1125;-22
2023/07/28 06:06:07;;;;;;;;;;;;;;;23.81;45.70;100748.09;5078602;28;1503;-22
2023/07/28 06:08:32;;;;;;;;;;;;;;;24.52;43.66;100756.94;5077910;28;1547;-24
2023/07/28 06:10:58;;;;;;;;;;;;;;;21.55;50.79;100744.25;5077955;28;1326;-27
2023/07/28 06:13:23;;;;;;;;;;;;;;;23.73;44.92;100746.22;5075485;28;1010;-22
2023/07/28 06:15:49;;;;;;;;;;;;;;;24.17;44.98;100749.78;5075895;28;2011;-23
2023/07/28 06:18:16;;;;;;;;;;;;;;;25.12;41.91;100738.84;5094393;28;1059;-23
2023/07/28 06:20:45;;;;;;;;;;;;;;;24.00;41.15;100738.13;5077768;28;1251;-22
2023/07/28 06:23:10;;;;;;;;;;;;;;;21.50;52.99;100747.31;5093456;28;1992;-23
2023/07/28 06:25:38;;;;;;;;;;;;;;;24.33;44.02;100745.47;5073598;28;1118;-24
2023/07/28 06:28:07;;;;;;;;;;;;;;;24.07;41.07;100749.06;5077792;28;1558;-22
2023/07/28 06:30:32;;;;;;;;;;;;;;;21.33;52.23;100746.25;5078230;28;1163;-25
2023/07/28 06:32:58;;;;;;;;;;;;;;;23.97;45.00;100747.31;5095416;28;1059;-21
2023/07/28 06:35:23;;;;;;;;;;;;;;;24.56;44.80;100751.06;5074030;28;1327;-24
2023/07/28 06:37:49;;;;;;;;;;;;;;;21.40;49.30;100746.53;5077800;28;1364;-22
2023/07/28 06:40:14;;;;;;;;;;;;;;;23.60;46.38;100749.34;5077739;28;1129;-23
2023/07/28 06:42:41;;;;;;;;;;;;;;;24.56;45.75;100753.75;5095735;28;1909;-23
2023/07/28 06:45:07;;;;;;;;;;;;;;;21.65;48.98;100755.75;5077472;28;2363;-24
2023/07/28 06:47:33;;;;;;;;;;;;;;;22.07;50.66;100761.66;5093182;28;1301;-24
2023/07/28 06:49:58;;;;;;;;;;;;;;;24.81;43.38;100767.22;5093854;28;1305;-25
2023/07/28 06:52:24;;;;;;;;;;;;;;;22.70;46.15;100769.94;5076529;28;1107;-26
2023/07/28 06:54:49;;;;;;;;;;;;;;;21.40;54.78;100760.72;5077689;28;1217;-22
2023/07/28 06:57:15;;;;;;;;;;;;;;;24.23;46.07;100774.31;5095489;28;1062;-24
2023/07/28 06:59:41;;;;;;;;;;;;;;;22.62;47.57;100769.88;5093823;28;1198;-25
2023/07/28 07:02:07;;;;;;;;;;;;;;;20.99;52.28;100773.44;5091257;28;1975;-25
2023/07/28 07:04:32;;;;;;;;;;;;;;;23.38;49.26;100782.91;5077166;28;1905;-23
2023/07/28 07:06:58;;;;;;;;;;;;;;;24.09;41.88;100779.28;5077218;28;1152;-29
2023/07/28 07:09:24;;;;;;;;;;;;;;;24.19;40.81;100779.22;5077715;28;1309;-28
2023/07/28 07:11:50;;;;;;;;;;;;;;;25.56;42.22;100788.75;5095340;28;1074;-26
2023/07/28 07:14:16;;;;;;;;;;;;;;;25.29;43.80;100788.09;5087588;28;2300;-25
2023/07/28 07:16:41;;;;;;;;;;;;;;;24.61;43.85;100793.59;5089770;28;1127;-24
2023/07/28 07:19:07;;;;;;;;;;;;;;;24.45;46.46;100799.78;5095153;28;1359;-27
2023/07/28 07:21:32;;;;;;;;;;;;;;;24.91;45.20;100791.31;5095208;28;1909;-25
2023/07/28 07:23:58;;;;;;;;;;;;;;;24.45;43.96;100795.25;5090509;28;1083;-25
2023/07/28 07:26:26;;;;;;;;;;;;;;;24.88;44.83;100791.63;5094335;28;1115;-24
2023/07/28 07:28:52;;;;;;;;;;;;;;;24.80;43.20;100794.31;5098688;28;1089;-23
2023/07/28 07:31:18;;;;;;;;;;;;;;;24.64;44.98;100806.69;5099183;28;1406;-27
2023/07/28 07:33:43;;;;;;;;;;;;;;;26.16;40.85;100795.66;5098321;28;1295;-29
2023/07/28 07:36:15;;;;;;;;;;;;;;;24.69;42.51;100795.47;5097139;28;1383;-25
2023/07/28 07:38:41;;;;;;;;;;;;;;;25.49;41.89;100785.03;5099087;28;1090;-24
2023/07/28 07:41:07;;;;;;;;;;;;;;;25.24;40.32;100797.72;5098943;28;1930;-24
2023/07/28 07:43:33;;;;;;;;;;;;;;;24.65;43.00;100791.41;5095498;28;1319;-28
2023/07/28 07:45:58;;;;;;;;;;;;;;;25.80;40.50;100797.81;5096365;28;2260;-27
2023/07/28 07:48:24;;;;;;;;;;;;;;;24.96;40.98;100796.19;5097574;28;868;-25
2023/07/28 07:50:50;;;;;;;;;;;;;;;24.55;42.19;100792.41;5098931;28;1030;-27
2023/07/28 07:53:15;;;;;;;;;;;;;;;25.60;41.29;100789.25;5098640;28;1029;-26
2023/07/28 07:55:41;;;;;;;;;;;;;;;25.08;40.86;100785.94;5099090;28;1014;-24
2023/07/28 07:58:07;;;;;;;;;;;;;;;24.63;41.36;100793.41;5097981;28;1115;-23
2023/07/28 08:00:32;;;;;;;;;;;;;;;24.51;43.45;100784.81;5098669;28;1102;-25
2023/07/28 08:02:58;;;;;;;;;;;;;;;26.06;39.41;100789.66;5098729;28;1981;-25
2023/07/28 08:05:23;;;;;;;;;;;;;;;24.93;40.19;100786.63;5098597;28;1011;-24
2023/07/28 08:07:50;;;;;;;;;;;;;;;24.69;42.29;100782.84;5096278;28;1276;-23
2023/07/28 08:10:16;;;;;;;;;;;;;;;25.78;39.20;100786.38;5091808;28;1394;-23
2023/07/28 08:12:44;;;;;;;;;;;;;;;24.99;39.72;100776.19;5096223;28;1166;-24
2023/07/28 08:15:10;;;;;;;;;;;;;;;24.46;40.57;100780.78;5098286;28;2452;-23
2023/07/28 08:17:35;;;;;;;;;;;;;;;25.72;39.45;100773.59;5098868;28;1188;-25
2023/07/28 08:20:01;;;;;;;;;;;;;;;25.38;38.69;100786.25;5098474;28;1078;-22
2023/07/28 08:22:26;;;;;;;;;;;;;;;24.75;39.54;100785.88;5098719;28;1974;-25
2023/07/28 08:24:52;;;;;;;;;;;;;;;24.98;41.34;100782.56;5088153;28;1472;-24
2023/07/28 08:27:18;;;;;;;;;;;;;;;26.19;37.69;100781.00;5098436;28;1057;-23
2023/07/28 08:29:43;;;;;;;;;;;;;;;24.80;38.82;100788.91;5098069;28;1094;-23
2023/07/28 08:32:09;;;;;;;;;;;;;;;24.50;39.70;100783.16;5098424;28;967;-25
2023/07/28 08:34:34;;;;;;;;;;;;;;;25.60;38.45;100765.00;5096642;28;1324;-25
2023/07/28 08:37:00;;;;;;;;;;;;;;;25.28;37.60;100772.97;5088722;28;1153;-24
2023/07/28 08:39:25;;;;;;;;;;;;;;;24.82;38.97;100784.22;5094837;28;1058;-29
2023/07/28 08:41:58;;;;;;;;;;;;;;;24.46;39.47;100788.84;5097945;28;1910;-25
2023/07/28 08:44:23;;;;;;;;;;;;;;;24.42;42.44;100783.97;5097389;28;1776;-24
2023/07/28 08:46:49;;;;;;;;;;;;;;;25.63;38.68;100774.63;5098047;28;1097;-26
2023/07/28 08:49:14;;;;;;;;;;;;;;;24.85;38.69;100783.88;5089470;28;1296;-22
2023/07/28 08:51:43;;;;;;;;;;;;;;;24.56;39.00;100777.94;5097990;28;1098;-24
2023/07/28 08:54:08;;;;;;;;;;;;;;;25.15;39.59;100783.41;5079336;28;1234;-24
2023/07/28 08:56:34;;;;;;;;;;;;;;;25.38;37.64;100774.63;5097984;28;1277;-23
2023/07/28 08:59:02;;;;;;;;;;;;;;;24.60;38.96;100775.78;5079729;28;1395;-25
2023/07/28 09:01:27;;;;;;;;;;;;;;;24.42;38.98;100770.53;5096096;28;1909;-23
2023/07/28 09:03:53;;;;;;;;;;;;;;;25.28;37.64;100759.50;5097035;28;1308;-23
2023/07/28 09:06:20;;;;;;;;;;;;;;;24.85;37.70;100758.81;5096962;28;1146;-24
2023/07/28 09:08:45;;;;;;;;;;;;;;;21.80;44.66;100760.69;5079631;28;1452;-22
2023/07/28 09:11:13;;;;;;;;;;;;;;;23.80;42.27;100761.69;5097215;28;1289;-22
2023/07/28 09:13:41;;;;;;;;;;;;;;;22.71;41.92;100746.63;5084754;28;1221;-21
2023/07/28 09:16:16;;;;;;;;;;;;;;;22.17;46.18;100763.47;5097465;28;2624;-21
2023/07/28 09:18:41;;;;;;;;;;;;;;;25.02;38.92;100770.47;5096893;28;1243;-22
2023/07/28 09:21:07;;;;;;;;;;;;;;;22.24;42.22;100762.72;5096986;28;1010;-21
2023/07/28 09:23:32;;;;;;;;;;;;;;;21.20;47.30;100756.41;5078686;28;1914;-25
2023/07/28 09:25:58;;;;;;;;;;;;;;;23.97;39.21;100763.44;5066610;28;1373;-22
2023/07/28 09:28:35;;;;;;;;;;;;;;;22.53;41.24;100754.63;5087176;28;1162;-21
2023/07/28 09:31:01;;;;;;;;;;;;;;;22.31;44.19;100759.44;5096976;28;1256;-21
2023/07/28 09:33:30;;;;;;;;;;;;;;;24.75;36.12;100762.53;5078657;28;1132;-21
2023/07/28 09:35:55;;;;;;;;;;;;;;;22.45;40.22;100752.72;5096830;28;1150;-21
2023/07/28 09:38:21;;;;;;;;;;;;;;;23.24;40.41;100754.78;5092180;28;1012;-22
2023/07/28 09:40:46;;;;;;;;;;;;;;;23.73;37.60;100745.38;5074500;28;1300;-22
2023/07/28 09:43:12;;;;;;;;;;;;;;;21.29;46.69;100736.81;5088614;28;1914;-23
2023/07/28 09:45:37;;;;;;;;;;;;;;;23.48;36.03;100743.41;5083519;28;2401;-25
2023/07/28 09:48:04;;;;;;;;;;;;;;;21.26;43.92;100740.63;5078220;28;881;-23
2023/07/28 09:50:31;;;;;;;;;;;;;;;23.79;37.57;100752.78;5078267;28;1177;-23
2023/07/28 09:52:57;;;;;;;;;;;;;;;21.51;42.32;100746.34;5096639;28;1070;-23
2023/07/28 09:55:22;;;;;;;;;;;;;;;23.69;38.30;100746.72;5077502;28;1067;-24
2023/07/28 09:57:51;;;;;;;;;;;;;;;21.95;41.02;100749.47;5096512;28;1098;-23
2023/07/28 10:00:17;;;;;;;;;;;;;;;23.05;39.53;100748.63;5096166;28;1149;-22
2023/07/28 10:02:42;;;;;;;;;;;;;;;22.79;39.24;100752.06;5095814;28;1983;-23
2023/07/28 10:05:10;;;;;;;;;;;;;;;21.98;44.74;100742.00;5096064;28;990;-23
2023/07/28 10:07:36;;;;;;;;;;;;;;;24.43;36.63;100738.09;5096794;28;1145;-28
2023/07/28 10:10:07;;;;;;;;;;;;;;;21.31;43.73;100742.03;5078334;28;1129;-25
2023/07/28 10:12:39;;;;;;;;;;;;;;;23.90;37.90;100737.41;5082061;28;1015;-25
2023/07/28 10:15:05;;;;;;;;;;;;;;;21.96;41.50;100737.75;5082274;28;2299;-22
2023/07/28 10:17:34;;;;;;;;;;;;;;;20.88;46.53;100727.16;5096445;28;1118;-22
2023/07/28 10:20:08;;;;;;;;;;;;;;;23.87;36.95;100726.97;5096054;28;1056;-22
2023/07/28 10:22:42;;;;;;;;;;;;;;;21.36;41.48;100729.91;5095211;28;1914;-21
2023/07/28 10:25:10;;;;;;;;;;;;;;;23.78;37.83;100723.41;5093233;28;1153;-23
2023/07/28 10:27:38;;;;;;;;;;;;;;;22.17;40.16;100721.41;5086696;28;1011;-21
2023/07/28 10:30:07;;;;;;;;;;;;;;;20.71;45.22;100706.44;5096172;28;1150;-21
2023/07/28 10:32:53;;;;;;;;;;;;;;;23.65;38.52;100713.13;5077923;28;1550;-22
2023/07/28 10:35:18;;;;;;;;;;;;;;;21.56;41.35;100700.41;5095340;28;1810;-24
2023/07/28 10:37:44;;;;;;;;;;;;;;;22.86;40.65;100704.88;5095882;28;994;-21
2023/07/28 10:40:29;;;;;;;;;;;;;;;23.64;37.40;100706.88;5095474;28;1117;-22
2023/07/28 10:42:55;;;;;;;;;;;;;;;20.65;44.90;100698.00;5095747;28;1910;-22
2023/07/28 10:45:22;;;;;;;;;;;;;;;23.52;39.62;100692.94;5093442;28;2468;-23
2023/07/28 10:47:48;;;;;;;;;;;;;;;21.92;41.63;100683.63;5095833;28;1094;-22
2023/07/28 10:50:13;;;;;;;;;;;;;;;20.57;45.45;100694.38;5095617;28;1058;-22
2023/07/28 10:52:42;;;;;;;;;;;;;;;22.69;41.63;100684.28;5095773;28;1042;-22
2023/07/28 10:55:14;;;;;;;;;;;;;;;22.26;40.81;100687.53;5096055;28;1149;-24
2023/07/28 10:57:40;;;;;;;;;;;;;;;20.70;46.36;100681.56;5095596;28;1201;-22
2023/07/28 11:00:07;;;;;;;;;;;;;;;23.56;37.48;100694.28;5095880;28;1118;-23
2023/07/28 11:02:33;;;;;;;;;;;;;;;21.03;41.97;100671.44;5098084;28;1914;-21
2023/07/28 11:04:58;;;;;;;;;;;;;;;21.59;43.65;100669.81;5099545;28;1221;-21
2023/07/28 11:07:24;;;;;;;;;;;;;;;24.25;37.59;100670.19;5100232;28;1074;-23
2023/07/28 11:09:50;;;;;;;;;;;;;;;21.00;43.53;100670.88;5099810;28;1098;-24
2023/07/28 11:12:15;;;;;;;;;;;;;;;20.71;47.23;100663.69;5099627;28;1098;-22
2023/07/28 11:14:41;;;;;;;;;;;;;;;23.97;38.84;100665.91;5092305;28;2308;-22
2023/07/28 11:17:06;;;;;;;;;;;;;;;21.35;43.66;100663.16;5079276;28;1104;-23
2023/07/28 11:19:33;;;;;;;;;;;;;;;20.52;46.55;100668.06;5081367;28;1103;-22
2023/07/28 11:21:58;;;;;;;;;;;;;;;22.00;44.68;100673.03;5099789;28;1978;-23
2023/07/28 11:24:25;;;;;;;;;;;;;;;23.55;38.83;100662.22;5099219;28;1094;-21
2023/07/28 11:26:51;;;;;;;;;;;;;;;20.75;45.67;100657.91;5098934;28;1067;-22
2023/07/28 11:29:18;;;;;;;;;;;;;;;21.06;47.92;100653.38;5099365;28;1118;-22
2023/07/28 11:31:43;;;;;;;;;;;;;;;24.18;39.28;100664.63;5099600;28;1081;-22
2023/07/28 11:34:18;;;;;;;;;;;;;;;21.17;44.80;100653.22;5099267;28;1126;-22
2023/07/28 11:36:43;;;;;;;;;;;;;;;20.53;49.15;100643.88;5099337;28;1054;-23
2023/07/28 11:39:10;;;;;;;;;;;;;;;23.36;41.34;100642.63;5098903;28;921;-24
2023/07/28 11:41:36;;;;;;;;;;;;;;;21.44;44.73;100648.91;5080430;28;1984;-22
2023/07/28 11:44:01;;;;;;;;;;;;;;;20.46;47.56;100650.75;5078811;28;1802;-23
2023/07/28 11:46:33;;;;;;;;;;;;;;;20.70;49.16;100646.81;5071607;28;1086;-22
2023/07/28 11:49:15;;;;;;;;;;;;;;;23.89;40.21;100649.75;5098377;28;994;-21
2023/07/28 11:51:43;;;;;;;;;;;;;;;20.86;45.61;100638.19;5098897;28;964;-21
2023/07/28 11:54:10;;;;;;;;;;;;;;;20.21;49.40;100633.44;5085808;28;1075;-22
2023/07/28 11:56:35;;;;;;;;;;;;;;;23.11;41.91;100635.28;5085201;28;1003;-23
2023/07/28 11:59:02;;;;;;;;;;;;;;;21.35;44.16;100629.25;5099070;28;1392;-22
2023/07/28 12:01:28;;;;;;;;;;;;;;;20.30;47.39;100628.09;5097432;28;1906;-21
2023/07/28 12:03:54;;;;;;;;;;;;;;;20.09;49.30;100622.88;5097760;28;905;-22
2023/07/28 12:06:19;;;;;;;;;;;;;;;22.87;41.90;100623.41;5092756;28;1202;-21
2023/07/28 12:08:45;;;;;;;;;;;;;;;21.23;44.15;100623.22;5098352;28;1327;-22
2023/07/28 12:11:14;;;;;;;;;;;;;;;20.39;47.04;100613.06;5098399;28;995;-21
2023/07/28 12:13:52;;;;;;;;;;;;;;;21.90;45.05;100608.81;5098313;28;1071;-21
2023/07/28 12:16:36;;;;;;;;;;;;;;;22.08;42.33;100610.69;5089928;28;2500;-22
2023/07/28 12:19:01;;;;;;;;;;;;;;;20.34;48.01;100609.97;5097950;28;1022;-23
2023/07/28 12:21:27;;;;;;;;;;;;;;;21.78;46.57;100607.34;5098094;28;1905;-22
2023/07/28 12:23:52;;;;;;;;;;;;;;;22.47;42.22;100617.53;5097936;28;1291;-21
2023/07/28 12:26:19;;;;;;;;;;;;;;;20.60;48.23;100616.56;5097895;28;1111;-22
2023/07/28 12:28:44;;;;;;;;;;;;;;;20.68;52.41;100617.56;5098084;28;999;-22
2023/07/28 12:31:10;;;;;;;;;;;;;;;23.70;42.67;100606.91;5098083;28;1142;-21
2023/07/28 12:33:35;;;;;;;;;;;;;;;20.83;48.21;100605.56;5098259;28;1102;-23
2023/07/28 12:36:01;;;;;;;;;;;;;;;20.14;51.20;100599.28;5097716;28;1093;-23
2023/07/28 12:38:26;;;;;;;;;;;;;;;22.78;45.40;100607.41;5085235;28;1320;-22
2023/07/28 12:40:52;;;;;;;;;;;;;;;21.41;46.81;100606.38;5097898;28;1288;-22
2023/07/28 12:43:17;;;;;;;;;;;;;;;20.36;49.85;100613.34;5098182;28;1984;-22
2023/07/28 12:45:43;;;;;;;;;;;;;;;20.97;51.50;100601.63;5098059;28;2565;-22
2023/07/28 12:48:08;;;;;;;;;;;;;;;23.69;43.66;100599.81;5097346;28;1261;-21